sensor_id;sensor_type;location;lat;lon;timestamp;P1;durP1;ratioP1;P2;durP2;ratioP2
15814;SDS011;8008;50.024;8.172;2022-08-30T03:00:31;3.59;;;2.41;;
15814;SDS011;8008;50.024;8.172;2022-08-30T03:02:59;4.85;;;2.58;;
15814;SDS011;8008;50.024;8.172;2022-08-30T03:05:29;4.78;;;2.70;;
15814;SDS011;8008;50.024;8.172;2022-08-30T03:07:58;5.47;;;2.65;;
15814;SDS011;8008;50.024;8.172;2022-08-30T03:10:26;5.20;;;2.35;;
15814;SDS011;8008;50.024;8.172;2022-08-30T03:12:55;5.10;;;2.47;;
15814;SDS011;8008;50.024;8.172;2022-08-30T03:15:23;5.57;;;2.83;;
15814;SDS011;8008;50.024;8.172;2022-08-30T03:17:53;4.15;;;2.65;;
15814;SDS011;8008;50.024;8.172;2022-08-30T03:20:22;4.80;;;2.75;;
15814;SDS011;8008;50.024;8.172;2022-08-30T03:22:51;3.95;;;2.58;;
15814;SDS011;8008;50.024;8.172;2022-08-30T03:25:20;2.92;;;2.47;;
15814;SDS011;8008;50.024;8.172;2022-08-30T03:27:48;7.80;;;2.90;;
15814;SDS011;8008;50.024;8.172;2022-08-30T03:30:17;4.57;;;2.88;;
15814;SDS011;8008;50.024;8.172;2022-08-30T03:32:47;4.05;;;2.40;;
15814;SDS011;8008;50.024;8.172;2022-08-30T03:35:18;3.85;;;2.67;;
15814;SDS011;8008;50.024;8.172;2022-08-30T03:37:45;5.35;;;2.75;;
15814;SDS011;8008;50.024;8.172;2022-08-30T03:40:21;3.75;;;2.33;;
15814;SDS011;8008;50.024;8.172;2022-08-30T03:42:49;5.15;;;2.70;;
15814;SDS011;8008;50.024;8.172;2022-08-30T03:45:18;4.60;;;2.70;;
15814;SDS011;8008;50.024;8.172;2022-08-30T03:47:46;5.05;;;2.88;;
15814;SDS011;8008;50.024;8.172;2022-08-30T03:50:14;4.57;;;2.60;;
15814;SDS011;8008;50.024;8.172;2022-08-30T03:52:44;4.45;;;2.80;;
15814;SDS011;8008;50.024;8.172;2022-08-30T03:55:12;5.43;;;2.78;;
15814;SDS011;8008;50.024;8.172;2022-08-30T03:57:40;4.38;;;2.78;;
15814;SDS011;8008;50.024;8.172;2022-08-30T04:00:09;3.25;;;2.42;;
15814;SDS011;8008;50.024;8.172;2022-08-30T04:02:38;3.42;;;2.40;;
15814;SDS011;8008;50.024;8.172;2022-08-30T04:05:07;3.67;;;2.72;;
15814;SDS011;8008;50.024;8.172;2022-08-30T04:07:35;5.75;;;2.65;;
15814;SDS011;8008;50.024;8.172;2022-08-30T04:10:06;3.88;;;2.70;;
15814;SDS011;8008;50.024;8.172;2022-08-30T04:12:35;4.38;;;2.70;;
15814;SDS011;8008;50.024;8.172;2022-08-30T04:15:04;7.68;;;2.92;;
15814;SDS011;8008;50.024;8.172;2022-08-30T04:17:34;6.10;;;2.88;;
15814;SDS011;8008;50.024;8.172;2022-08-30T04:20:02;4.38;;;2.65;;
15814;SDS011;8008;50.024;8.172;2022-08-30T04:22:30;6.15;;;2.88;;
15814;SDS011;8008;50.024;8.172;2022-08-30T04:24:58;5.82;;;3.00;;
15814;SDS011;8008;50.024;8.172;2022-08-30T04:27:28;4.43;;;2.72;;
15814;SDS011;8008;50.024;8.172;2022-08-30T04:29:57;5.32;;;3.00;;
15814;SDS011;8008;50.024;8.172;2022-08-30T04:32:25;3.30;;;2.60;;
15814;SDS011;8008;50.024;8.172;2022-08-30T04:34:54;6.95;;;3.00;;
15814;SDS011;8008;50.024;8.172;2022-08-30T04:37:23;3.67;;;2.83;;
15814;SDS011;8008;50.024;8.172;2022-08-30T04:39:53;3.50;;;2.92;;
15814;SDS011;8008;50.024;8.172;2022-08-30T04:42:22;5.07;;;3.22;;
15814;SDS011;8008;50.024;8.172;2022-08-30T04:44:52;4.10;;;3.08;;
15814;SDS011;8008;50.024;8.172;2022-08-30T04:47:20;5.13;;;2.88;;
15814;SDS011;8008;50.024;8.172;2022-08-30T04:49:48;5.38;;;3.10;;
15814;SDS011;8008;50.024;8.172;2022-08-30T04:52:16;4.78;;;3.05;;
15814;SDS011;8008;50.024;8.172;2022-08-30T04:54:44;5.35;;;2.90;;
15814;SDS011;8008;50.024;8.172;2022-08-30T04:57:12;8.57;;;3.00;;
15814;SDS011;8008;50.024;8.172;2022-08-30T04:59:40;4.40;;;2.72;;
15814;SDS011;8008;50.024;8.172;2022-08-30T05:02:09;4.47;;;3.05;;
15814;SDS011;8008;50.024;8.172;2022-08-30T05:04:40;6.38;;;2.95;;
15814;SDS011;8008;50.024;8.172;2022-08-30T05:07:28;4.85;;;2.80;;
15814;SDS011;8008;50.024;8.172;2022-08-30T05:09:58;5.00;;;3.03;;
15814;SDS011;8008;50.024;8.172;2022-08-30T05:12:26;5.60;;;3.17;;
15814;SDS011;8008;50.024;8.172;2022-08-30T05:14:54;3.22;;;2.70;;
15814;SDS011;8008;50.024;8.172;2022-08-30T05:17:24;5.28;;;2.53;;
15814;SDS011;8008;50.024;8.172;2022-08-30T05:19:52;6.40;;;3.00;;
15814;SDS011;8008;50.024;8.172;2022-08-30T05:22:20;4.20;;;2.78;;
15814;SDS011;8008;50.024;8.172;2022-08-30T05:24:48;5.38;;;2.80;;
15814;SDS011;8008;50.024;8.172;2022-08-30T05:27:16;7.47;;;3.10;;
15814;SDS011;8008;50.024;8.172;2022-08-30T05:29:45;4.05;;;3.08;;
15814;SDS011;8008;50.024;8.172;2022-08-30T05:32:13;4.38;;;3.00;;
15814;SDS011;8008;50.024;8.172;2022-08-30T05:34:42;4.57;;;2.90;;
15814;SDS011;8008;50.024;8.172;2022-08-30T05:37:10;5.72;;;2.80;;
15814;SDS011;8008;50.024;8.172;2022-08-30T05:39:38;7.70;;;3.30;;
15814;SDS011;8008;50.024;8.172;2022-08-30T05:42:16;6.15;;;3.33;;
15814;SDS011;8008;50.024;8.172;2022-08-30T05:44:44;7.97;;;3.13;;
15814;SDS011;8008;50.024;8.172;2022-08-30T05:47:12;5.57;;;3.10;;
15814;SDS011;8008;50.024;8.172;2022-08-30T05:49:40;3.28;;;2.72;;
15814;SDS011;8008;50.024;8.172;2022-08-30T05:52:10;5.93;;;3.05;;
15814;SDS011;8008;50.024;8.172;2022-08-30T05:54:39;4.15;;;2.75;;
15814;SDS011;8008;50.024;8.172;2022-08-30T05:57:07;4.75;;;3.25;;
15814;SDS011;8008;50.024;8.172;2022-08-30T05:59:35;4.88;;;2.95;;
15814;SDS011;8008;50.024;8.172;2022-08-30T06:02:03;6.38;;;2.83;;
15814;SDS011;8008;50.024;8.172;2022-08-30T06:04:32;6.03;;;2.65;;
15814;SDS011;8008;50.024;8.172;2022-08-30T06:07:03;4.25;;;3.05;;
15814;SDS011;8008;50.024;8.172;2022-08-30T06:09:31;6.32;;;3.10;;
15814;SDS011;8008;50.024;8.172;2022-08-30T06:11:59;6.05;;;2.95;;
15814;SDS011;8008;50.024;8.172;2022-08-30T06:14:27;4.80;;;3.20;;
15814;SDS011;8008;50.024;8.172;2022-08-30T06:16:55;4.70;;;2.97;;
15814;SDS011;8008;50.024;8.172;2022-08-30T06:19:23;4.93;;;2.72;;
15814;SDS011;8008;50.024;8.172;2022-08-30T06:21:51;6.25;;;3.17;;
15814;SDS011;8008;50.024;8.172;2022-08-30T06:24:21;5.53;;;2.80;;
15814;SDS011;8008;50.024;8.172;2022-08-30T06:27:09;6.30;;;2.97;;
15814;SDS011;8008;50.024;8.172;2022-08-30T06:29:37;5.18;;;2.90;;
15814;SDS011;8008;50.024;8.172;2022-08-30T06:32:06;4.53;;;3.03;;
15814;SDS011;8008;50.024;8.172;2022-08-30T06:34:33;3.58;;;2.92;;
15814;SDS011;8008;50.024;8.172;2022-08-30T06:37:01;5.00;;;3.03;;
15814;SDS011;8008;50.024;8.172;2022-08-30T06:39:31;5.45;;;2.72;;
15814;SDS011;8008;50.024;8.172;2022-08-30T06:41:58;6.20;;;2.90;;
15814;SDS011;8008;50.024;8.172;2022-08-30T06:44:28;7.63;;;3.22;;
15814;SDS011;8008;50.024;8.172;2022-08-30T06:46:56;3.63;;;2.75;;
15814;SDS011;8008;50.024;8.172;2022-08-30T06:49:24;4.13;;;3.05;;
15814;SDS011;8008;50.024;8.172;2022-08-30T06:51:52;5.47;;;2.83;;
15814;SDS011;8008;50.024;8.172;2022-08-30T06:54:20;5.47;;;3.00;;
15814;SDS011;8008;50.024;8.172;2022-08-30T06:56:49;4.10;;;2.90;;
15814;SDS011;8008;50.024;8.172;2022-08-30T06:59:24;8.27;;;3.20;;
15814;SDS011;8008;50.024;8.172;2022-08-30T07:01:53;5.32;;;3.08;;
15814;SDS011;8008;50.024;8.172;2022-08-30T07:04:21;5.30;;;3.10;;
15814;SDS011;8008;50.024;8.172;2022-08-30T07:06:50;6.13;;;3.25;;
15814;SDS011;8008;50.024;8.172;2022-08-30T07:09:18;5.53;;;3.03;;
15814;SDS011;8008;50.024;8.172;2022-08-30T07:11:50;6.45;;;3.40;;
15814;SDS011;8008;50.024;8.172;2022-08-30T07:14:18;8.60;;;3.55;;
15814;SDS011;8008;50.024;8.172;2022-08-30T07:16:47;4.35;;;3.40;;
15814;SDS011;8008;50.024;8.172;2022-08-30T07:19:17;10.20;;;3.45;;
15814;SDS011;8008;50.024;8.172;2022-08-30T07:21:46;7.28;;;3.25;;
15814;SDS011;8008;50.024;8.172;2022-08-30T07:24:15;7.15;;;3.22;;
15814;SDS011;8008;50.024;8.172;2022-08-30T07:26:44;6.57;;;2.92;;
15814;SDS011;8008;50.024;8.172;2022-08-30T07:29:16;6.47;;;3.10;;
15814;SDS011;8008;50.024;8.172;2022-08-30T07:31:45;10.20;;;3.25;;
15814;SDS011;8008;50.024;8.172;2022-08-30T07:34:12;8.70;;;3.35;;
15814;SDS011;8008;50.024;8.172;2022-08-30T07:36:40;6.10;;;3.08;;
15814;SDS011;8008;50.024;8.172;2022-08-30T07:39:08;11.18;;;3.55;;
15814;SDS011;8008;50.024;8.172;2022-08-30T07:41:36;9.40;;;3.25;;
15814;SDS011;8008;50.024;8.172;2022-08-30T07:44:05;8.65;;;2.90;;
15814;SDS011;8008;50.024;8.172;2022-08-30T07:46:35;8.23;;;3.25;;
15814;SDS011;8008;50.024;8.172;2022-08-30T07:49:05;7.82;;;3.42;;
15814;SDS011;8008;50.024;8.172;2022-08-30T07:51:36;7.43;;;3.17;;
15814;SDS011;8008;50.024;8.172;2022-08-30T07:54:05;5.93;;;2.63;;
15814;SDS011;8008;50.024;8.172;2022-08-30T07:56:33;5.22;;;2.80;;
15814;SDS011;8008;50.024;8.172;2022-08-30T07:59:01;5.63;;;2.67;;
15814;SDS011;8008;50.024;8.172;2022-08-30T08:01:29;5.60;;;2.95;;
15814;SDS011;8008;50.024;8.172;2022-08-30T08:03:59;7.70;;;2.80;;
15814;SDS011;8008;50.024;8.172;2022-08-30T08:06:27;7.05;;;2.80;;
15814;SDS011;8008;50.024;8.172;2022-08-30T08:09:00;5.47;;;2.50;;
15814;SDS011;8008;50.024;8.172;2022-08-30T08:11:28;8.13;;;2.80;;
15814;SDS011;8008;50.024;8.172;2022-08-30T08:13:59;5.93;;;2.70;;
15814;SDS011;8008;50.024;8.172;2022-08-30T08:16:29;6.68;;;2.80;;
15814;SDS011;8008;50.024;8.172;2022-08-30T08:19:00;6.95;;;2.70;;
15814;SDS011;8008;50.024;8.172;2022-08-30T08:21:28;4.40;;;2.50;;
15814;SDS011;8008;50.024;8.172;2022-08-30T08:23:55;7.40;;;2.70;;
15814;SDS011;8008;50.024;8.172;2022-08-30T08:26:23;8.52;;;2.75;;
15814;SDS011;8008;50.024;8.172;2022-08-30T08:28:52;6.25;;;2.50;;
15814;SDS011;8008;50.024;8.172;2022-08-30T08:31:21;5.95;;;2.70;;
15814;SDS011;8008;50.024;8.172;2022-08-30T08:34:00;3.67;;;2.47;;
15814;SDS011;8008;50.024;8.172;2022-08-30T08:36:30;6.68;;;2.65;;
15814;SDS011;8008;50.024;8.172;2022-08-30T08:38:59;6.15;;;2.60;;
15814;SDS011;8008;50.024;8.172;2022-08-30T08:41:35;4.47;;;2.70;;
15814;SDS011;8008;50.024;8.172;2022-08-30T08:44:13;5.85;;;2.55;;
15814;SDS011;8008;50.024;8.172;2022-08-30T08:46:51;4.80;;;2.53;;
15814;SDS011;8008;50.024;8.172;2022-08-30T08:49:26;6.13;;;2.75;;
15814;SDS011;8008;50.024;8.172;2022-08-30T08:51:56;4.60;;;2.75;;
15814;SDS011;8008;50.024;8.172;2022-08-30T08:54:43;4.68;;;2.63;;
15814;SDS011;8008;50.024;8.172;2022-08-30T08:57:17;5.22;;;2.60;;
15814;SDS011;8008;50.024;8.172;2022-08-30T08:59:50;6.78;;;2.65;;
15814;SDS011;8008;50.024;8.172;2022-08-30T09:02:22;5.30;;;2.85;;
15814;SDS011;8008;50.024;8.172;2022-08-30T09:04:54;4.63;;;2.40;;
15814;SDS011;8008;50.024;8.172;2022-08-30T09:07:26;5.32;;;2.45;;
15814;SDS011;8008;50.024;8.172;2022-08-30T09:09:56;8.50;;;2.80;;
15814;SDS011;8008;50.024;8.172;2022-08-30T09:12:26;9.05;;;2.83;;
15814;SDS011;8008;50.024;8.172;2022-08-30T09:14:55;5.40;;;2.53;;
15814;SDS011;8008;50.024;8.172;2022-08-30T09:17:29;4.15;;;2.72;;
15814;SDS011;8008;50.024;8.172;2022-08-30T09:20:25;5.32;;;2.50;;
15814;SDS011;8008;50.024;8.172;2022-08-30T09:22:55;6.75;;;2.53;;
15814;SDS011;8008;50.024;8.172;2022-08-30T09:25:25;4.78;;;2.45;;
15814;SDS011;8008;50.024;8.172;2022-08-30T09:28:06;8.02;;;2.85;;
15814;SDS011;8008;50.024;8.172;2022-08-30T09:30:36;5.93;;;2.58;;
15814;SDS011;8008;50.024;8.172;2022-08-30T09:33:05;4.25;;;2.50;;
15814;SDS011;8008;50.024;8.172;2022-08-30T09:35:47;6.88;;;2.70;;
15814;SDS011;8008;50.024;8.172;2022-08-30T09:38:19;5.10;;;2.50;;
15814;SDS011;8008;50.024;8.172;2022-08-30T09:40:50;6.53;;;2.50;;
15814;SDS011;8008;50.024;8.172;2022-08-30T09:43:20;6.15;;;2.58;;
15814;SDS011;8008;50.024;8.172;2022-08-30T09:46:03;4.47;;;2.50;;
15814;SDS011;8008;50.024;8.172;2022-08-30T09:48:34;4.05;;;2.58;;
15814;SDS011;8008;50.024;8.172;2022-08-30T09:51:13;4.22;;;2.50;;
15814;SDS011;8008;50.024;8.172;2022-08-30T09:53:59;4.07;;;2.50;;
15814;SDS011;8008;50.024;8.172;2022-08-30T09:56:45;3.83;;;2.30;;
15814;SDS011;8008;50.024;8.172;2022-08-30T09:59:28;4.53;;;2.53;;
15814;SDS011;8008;50.024;8.172;2022-08-30T10:02:18;5.45;;;2.47;;
15814;SDS011;8008;50.024;8.172;2022-08-30T10:05:00;4.50;;;2.50;;
15814;SDS011;8008;50.024;8.172;2022-08-30T10:07:33;6.38;;;2.58;;
15814;SDS011;8008;50.024;8.172;2022-08-30T10:10:10;5.35;;;2.45;;
15814;SDS011;8008;50.024;8.172;2022-08-30T10:12:45;9.25;;;2.53;;
15814;SDS011;8008;50.024;8.172;2022-08-30T10:15:24;5.55;;;2.28;;
15814;SDS011;8008;50.024;8.172;2022-08-30T10:17:59;4.95;;;2.30;;
15814;SDS011;8008;50.024;8.172;2022-08-30T10:20:32;8.88;;;6.57;;
15814;SDS011;8008;50.024;8.172;2022-08-30T10:23:11;5.40;;;2.60;;
15814;SDS011;8008;50.024;8.172;2022-08-30T10:25:44;7.35;;;2.63;;
15814;SDS011;8008;50.024;8.172;2022-08-30T10:28:18;4.95;;;2.28;;
15814;SDS011;8008;50.024;8.172;2022-08-30T10:30:55;6.60;;;2.60;;
15814;SDS011;8008;50.024;8.172;2022-08-30T10:33:29;4.00;;;2.50;;
15814;SDS011;8008;50.024;8.172;2022-08-30T10:36:03;5.05;;;2.60;;
15814;SDS011;8008;50.024;8.172;2022-08-30T10:38:38;3.38;;;2.10;;
15814;SDS011;8008;50.024;8.172;2022-08-30T10:41:09;3.42;;;2.45;;
15814;SDS011;8008;50.024;8.172;2022-08-30T10:43:48;3.28;;;2.13;;
15814;SDS011;8008;50.024;8.172;2022-08-30T10:46:23;5.40;;;2.58;;
15814;SDS011;8008;50.024;8.172;2022-08-30T10:48:56;6.70;;;2.40;;
15814;SDS011;8008;50.024;8.172;2022-08-30T10:51:29;3.17;;;2.40;;
15814;SDS011;8008;50.024;8.172;2022-08-30T10:54:06;3.38;;;2.28;;
15814;SDS011;8008;50.024;8.172;2022-08-30T10:56:41;3.75;;;2.35;;
15814;SDS011;8008;50.024;8.172;2022-08-30T10:59:11;4.47;;;2.35;;
15814;SDS011;8008;50.024;8.172;2022-08-30T11:01:58;3.58;;;2.17;;
15814;SDS011;8008;50.024;8.172;2022-08-30T11:04:47;4.53;;;2.28;;
15814;SDS011;8008;50.024;8.172;2022-08-30T11:07:28;4.25;;;2.38;;
15814;SDS011;8008;50.024;8.172;2022-08-30T11:10:10;2.95;;;2.53;;
15814;SDS011;8008;50.024;8.172;2022-08-30T11:12:55;4.97;;;2.22;;
15814;SDS011;8008;50.024;8.172;2022-08-30T11:15:28;2.90;;;2.20;;
15814;SDS011;8008;50.024;8.172;2022-08-30T11:17:58;3.22;;;2.13;;
15814;SDS011;8008;50.024;8.172;2022-08-30T11:20:32;5.00;;;2.42;;
15814;SDS011;8008;50.024;8.172;2022-08-30T11:23:26;2.67;;;2.17;;
15814;SDS011;8008;50.024;8.172;2022-08-30T11:26:01;3.80;;;2.47;;
15814;SDS011;8008;50.024;8.172;2022-08-30T11:31:28;3.22;;;2.47;;
15814;SDS011;8008;50.024;8.172;2022-08-30T11:34:00;2.80;;;2.58;;
15814;SDS011;8008;50.024;8.172;2022-08-30T11:42:47;4.78;;;2.40;;
15814;SDS011;8008;50.024;8.172;2022-08-30T11:54:40;4.50;;;2.38;;
15814;SDS011;8008;50.024;8.172;2022-08-30T11:57:26;3.00;;;2.40;;
15814;SDS011;8008;50.024;8.172;2022-08-30T12:00:07;2.95;;;2.20;;
15814;SDS011;8008;50.024;8.172;2022-08-30T12:02:47;4.43;;;2.42;;
15814;SDS011;8008;50.024;8.172;2022-08-30T12:08:39;3.20;;;2.30;;
15814;SDS011;8008;50.024;8.172;2022-08-30T12:14:37;2.83;;;2.38;;
15814;SDS011;8008;50.024;8.172;2022-08-30T12:17:14;2.90;;;2.50;;
15814;SDS011;8008;50.024;8.172;2022-08-30T12:20:10;3.95;;;2.38;;
15814;SDS011;8008;50.024;8.172;2022-08-30T12:22:45;3.80;;;2.40;;
15814;SDS011;8008;50.024;8.172;2022-08-30T12:25:14;4.68;;;2.38;;
15814;SDS011;8008;50.024;8.172;2022-08-30T12:27:47;4.32;;;2.47;;
15814;SDS011;8008;50.024;8.172;2022-08-30T12:30:22;3.00;;;2.25;;
15814;SDS011;8008;50.024;8.172;2022-08-30T12:32:53;2.95;;;2.30;;
15814;SDS011;8008;50.024;8.172;2022-08-30T12:35:24;3.83;;;2.55;;
15814;SDS011;8008;50.024;8.172;2022-08-30T12:37:55;3.50;;;2.60;;
15814;SDS011;8008;50.024;8.172;2022-08-30T12:40:26;5.57;;;2.40;;
15814;SDS011;8008;50.024;8.172;2022-08-30T12:42:57;3.40;;;2.63;;
15814;SDS011;8008;50.024;8.172;2022-08-30T12:45:28;3.50;;;2.30;;
15814;SDS011;8008;50.024;8.172;2022-08-30T12:48:03;4.18;;;2.45;;
15814;SDS011;8008;50.024;8.172;2022-08-30T12:50:36;3.58;;;2.28;;
15814;SDS011;8008;50.024;8.172;2022-08-30T12:53:21;5.20;;;2.65;;
15814;SDS011;8008;50.024;8.172;2022-08-30T12:55:55;2.95;;;2.55;;
15814;SDS011;8008;50.024;8.172;2022-08-30T12:58:40;3.72;;;2.47;;
15814;SDS011;8008;50.024;8.172;2022-08-30T13:01:11;4.28;;;2.50;;
15814;SDS011;8008;50.024;8.172;2022-08-30T13:03:54;3.08;;;2.42;;
15814;SDS011;8008;50.024;8.172;2022-08-30T13:06:36;4.32;;;2.40;;
15814;SDS011;8008;50.024;8.172;2022-08-30T13:09:07;3.58;;;2.30;;
15814;SDS011;8008;50.024;8.172;2022-08-30T13:11:36;5.57;;;2.50;;
15814;SDS011;8008;50.024;8.172;2022-08-30T13:14:18;2.75;;;2.38;;
15814;SDS011;8008;50.024;8.172;2022-08-30T13:17:03;7.13;;;2.70;;
15814;SDS011;8008;50.024;8.172;2022-08-30T13:19:35;3.40;;;2.50;;
15814;SDS011;8008;50.024;8.172;2022-08-30T13:22:21;3.75;;;2.60;;
15814;SDS011;8008;50.024;8.172;2022-08-30T13:24:52;3.10;;;2.45;;
15814;SDS011;8008;50.024;8.172;2022-08-30T13:27:20;6.15;;;2.60;;
15814;SDS011;8008;50.024;8.172;2022-08-30T13:29:49;3.25;;;2.42;;
15814;SDS011;8008;50.024;8.172;2022-08-30T13:32:17;5.95;;;2.80;;
15814;SDS011;8008;50.024;8.172;2022-08-30T13:34:47;2.70;;;2.50;;
15814;SDS011;8008;50.024;8.172;2022-08-30T13:37:16;3.03;;;2.45;;
15814;SDS011;8008;50.024;8.172;2022-08-30T13:40:08;4.22;;;2.60;;
15814;SDS011;8008;50.024;8.172;2022-08-30T13:42:38;2.50;;;2.30;;
15814;SDS011;8008;50.024;8.172;2022-08-30T13:45:08;2.78;;;2.40;;
15814;SDS011;8008;50.024;8.172;2022-08-30T13:47:58;2.45;;;2.20;;
15814;SDS011;8008;50.024;8.172;2022-08-30T13:50:28;4.65;;;2.53;;
15814;SDS011;8008;50.024;8.172;2022-08-30T13:52:55;2.92;;;2.38;;
15814;SDS011;8008;50.024;8.172;2022-08-30T13:55:24;3.05;;;2.05;;
15814;SDS011;8008;50.024;8.172;2022-08-30T13:57:52;3.58;;;2.45;;
15814;SDS011;8008;50.024;8.172;2022-08-30T14:00:23;4.75;;;2.35;;
15814;SDS011;8008;50.024;8.172;2022-08-30T14:02:51;3.28;;;2.25;;
15814;SDS011;8008;50.024;8.172;2022-08-30T14:05:26;3.00;;;2.22;;
15814;SDS011;8008;50.024;8.172;2022-08-30T14:08:18;3.10;;;2.33;;
15814;SDS011;8008;50.024;8.172;2022-08-30T14:11:08;4.88;;;2.22;;
15814;SDS011;8008;50.024;8.172;2022-08-30T14:13:37;2.58;;;2.25;;
15814;SDS011;8008;50.024;8.172;2022-08-30T14:16:28;3.00;;;2.40;;
15814;SDS011;8008;50.024;8.172;2022-08-30T14:18:57;3.45;;;2.60;;
15814;SDS011;8008;50.024;8.172;2022-08-30T14:21:27;3.05;;;2.35;;
15814;SDS011;8008;50.024;8.172;2022-08-30T14:23:55;4.38;;;2.60;;
15814;SDS011;8008;50.024;8.172;2022-08-30T14:26:26;3.03;;;2.47;;
15814;SDS011;8008;50.024;8.172;2022-08-30T14:28:59;2.42;;;2.22;;
15814;SDS011;8008;50.024;8.172;2022-08-30T14:31:28;2.60;;;2.40;;
15814;SDS011;8008;50.024;8.172;2022-08-30T14:33:58;2.50;;;2.30;;
15814;SDS011;8008;50.024;8.172;2022-08-30T14:36:30;4.25;;;2.40;;
15814;SDS011;8008;50.024;8.172;2022-08-30T14:38:58;4.03;;;2.42;;
15814;SDS011;8008;50.024;8.172;2022-08-30T14:41:26;2.83;;;2.40;;
15814;SDS011;8008;50.024;8.172;2022-08-30T14:43:55;3.40;;;2.35;;
15814;SDS011;8008;50.024;8.172;2022-08-30T14:46:22;2.40;;;2.20;;
15814;SDS011;8008;50.024;8.172;2022-08-30T14:48:52;2.20;;;2.00;;
15814;SDS011;8008;50.024;8.172;2022-08-30T14:51:21;2.20;;;2.00;;
15814;SDS011;8008;50.024;8.172;2022-08-30T14:53:51;3.92;;;2.03;;
15814;SDS011;8008;50.024;8.172;2022-08-30T14:56:20;4.57;;;2.10;;
15814;SDS011;8008;50.024;8.172;2022-08-30T14:58:50;2.30;;;2.10;;
15814;SDS011;8008;50.024;8.172;2022-08-30T15:01:25;3.75;;;2.20;;
15814;SDS011;8008;50.024;8.172;2022-08-30T15:03:54;2.42;;;2.20;;
15814;SDS011;8008;50.024;8.172;2022-08-30T15:06:23;3.80;;;2.30;;
15814;SDS011;8008;50.024;8.172;2022-08-30T15:08:53;2.28;;;2.15;;
15814;SDS011;8008;50.024;8.172;2022-08-30T15:11:22;3.83;;;2.13;;
15814;SDS011;8008;50.024;8.172;2022-08-30T15:13:51;2.38;;;2.10;;
15814;SDS011;8008;50.024;8.172;2022-08-30T15:16:20;3.00;;;2.17;;
15814;SDS011;8008;50.024;8.172;2022-08-30T15:18:50;3.67;;;2.40;;
15814;SDS011;8008;50.024;8.172;2022-08-30T15:21:22;2.45;;;2.20;;
15814;SDS011;8008;50.024;8.172;2022-08-30T15:23:52;3.08;;;2.78;;
15814;SDS011;8008;50.024;8.172;2022-08-30T15:26:21;2.47;;;2.22;;
15814;SDS011;8008;50.024;8.172;2022-08-30T15:28:49;3.33;;;2.40;;
15814;SDS011;8008;50.024;8.172;2022-08-30T15:31:18;2.42;;;2.20;;
15814;SDS011;8008;50.024;8.172;2022-08-30T15:33:48;3.55;;;2.35;;
15814;SDS011;8008;50.024;8.172;2022-08-30T15:36:16;3.10;;;2.30;;
15814;SDS011;8008;50.024;8.172;2022-08-30T15:38:44;3.35;;;2.40;;
15814;SDS011;8008;50.024;8.172;2022-08-30T15:41:14;2.63;;;2.42;;
15814;SDS011;8008;50.024;8.172;2022-08-30T15:43:43;2.67;;;2.33;;
15814;SDS011;8008;50.024;8.172;2022-08-30T15:46:18;3.08;;;2.40;;
15814;SDS011;8008;50.024;8.172;2022-08-30T15:48:54;2.58;;;2.30;;
15814;SDS011;8008;50.024;8.172;2022-08-30T15:51:26;3.92;;;2.50;;
15814;SDS011;8008;50.024;8.172;2022-08-30T15:54:06;2.95;;;2.67;;
15814;SDS011;8008;50.024;8.172;2022-08-30T15:56:38;3.45;;;2.65;;
15814;SDS011;8008;50.024;8.172;2022-08-30T15:59:07;2.97;;;2.53;;
15814;SDS011;8008;50.024;8.172;2022-08-30T16:01:36;2.88;;;2.60;;
15814;SDS011;8008;50.024;8.172;2022-08-30T16:04:04;3.95;;;2.75;;
15814;SDS011;8008;50.024;8.172;2022-08-30T16:06:33;3.38;;;3.05;;
15814;SDS011;8008;50.024;8.172;2022-08-30T16:09:03;3.72;;;2.75;;
15814;SDS011;8008;50.024;8.172;2022-08-30T16:11:32;3.83;;;2.90;;
15814;SDS011;8008;50.024;8.172;2022-08-30T16:14:02;3.90;;;2.55;;
15814;SDS011;8008;50.024;8.172;2022-08-30T16:16:31;3.55;;;2.53;;
15814;SDS011;8008;50.024;8.172;2022-08-30T16:19:00;3.97;;;2.50;;
15814;SDS011;8008;50.024;8.172;2022-08-30T16:21:29;3.03;;;2.72;;
15814;SDS011;8008;50.024;8.172;2022-08-30T16:23:58;2.90;;;2.70;;
15814;SDS011;8008;50.024;8.172;2022-08-30T16:26:28;3.38;;;2.80;;
15814;SDS011;8008;50.024;8.172;2022-08-30T16:28:58;3.92;;;2.90;;
15814;SDS011;8008;50.024;8.172;2022-08-30T16:31:28;2.92;;;2.72;;
15814;SDS011;8008;50.024;8.172;2022-08-30T16:33:57;2.90;;;2.70;;
15814;SDS011;8008;50.024;8.172;2022-08-30T16:36:29;3.20;;;2.67;;
15814;SDS011;8008;50.024;8.172;2022-08-30T16:38:58;2.75;;;2.53;;
15814;SDS011;8008;50.024;8.172;2022-08-30T16:41:26;4.22;;;2.90;;
15814;SDS011;8008;50.024;8.172;2022-08-30T16:43:57;2.88;;;2.65;;
15814;SDS011;8008;50.024;8.172;2022-08-30T16:46:26;3.47;;;3.17;;
15814;SDS011;8008;50.024;8.172;2022-08-30T16:48:55;4.97;;;3.35;;
15814;SDS011;8008;50.024;8.172;2022-08-30T16:51:27;11.57;;;5.30;;
15814;SDS011;8008;50.024;8.172;2022-08-30T16:53:58;12.25;;;5.47;;
15814;SDS011;8008;50.024;8.172;2022-08-30T16:56:29;10.40;;;5.45;;
15814;SDS011;8008;50.024;8.172;2022-08-30T16:58:59;6.38;;;3.95;;
15814;SDS011;8008;50.024;8.172;2022-08-30T17:01:32;4.07;;;3.03;;
15814;SDS011;8008;50.024;8.172;2022-08-30T17:04:04;7.28;;;3.30;;
15814;SDS011;8008;50.024;8.172;2022-08-30T17:06:34;3.33;;;3.00;;
15814;SDS011;8008;50.024;8.172;2022-08-30T17:09:02;3.67;;;2.97;;
15814;SDS011;8008;50.024;8.172;2022-08-30T17:11:30;3.45;;;2.83;;
15814;SDS011;8008;50.024;8.172;2022-08-30T17:13:59;3.13;;;2.83;;
15814;SDS011;8008;50.024;8.172;2022-08-30T17:16:27;3.20;;;2.90;;
15814;SDS011;8008;50.024;8.172;2022-08-30T17:18:56;3.17;;;2.83;;
15814;SDS011;8008;50.024;8.172;2022-08-30T17:21:26;3.53;;;3.10;;
15814;SDS011;8008;50.024;8.172;2022-08-30T17:23:55;4.88;;;3.28;;
15814;SDS011;8008;50.024;8.172;2022-08-30T17:26:43;4.18;;;3.13;;
15814;SDS011;8008;50.024;8.172;2022-08-30T17:29:11;3.97;;;2.78;;
15814;SDS011;8008;50.024;8.172;2022-08-30T17:31:41;3.67;;;3.05;;
15814;SDS011;8008;50.024;8.172;2022-08-30T17:34:17;6.22;;;3.55;;
15814;SDS011;8008;50.024;8.172;2022-08-30T17:36:47;4.35;;;3.15;;
15814;SDS011;8008;50.024;8.172;2022-08-30T17:39:16;4.93;;;3.22;;
15814;SDS011;8008;50.024;8.172;2022-08-30T17:41:44;3.30;;;3.00;;
15814;SDS011;8008;50.024;8.172;2022-08-30T17:44:16;4.03;;;3.40;;
15814;SDS011;8008;50.024;8.172;2022-08-30T17:46:44;4.50;;;3.13;;
15814;SDS011;8008;50.024;8.172;2022-08-30T17:49:12;5.68;;;3.20;;
15814;SDS011;8008;50.024;8.172;2022-08-30T17:51:42;3.35;;;2.97;;
15814;SDS011;8008;50.024;8.172;2022-08-30T17:54:13;3.75;;;3.10;;
15814;SDS011;8008;50.024;8.172;2022-08-30T17:56:41;3.75;;;2.83;;
15814;SDS011;8008;50.024;8.172;2022-08-30T17:59:10;4.97;;;2.83;;
15814;SDS011;8008;50.024;8.172;2022-08-30T18:01:39;5.93;;;3.00;;
15814;SDS011;8008;50.024;8.172;2022-08-30T18:04:08;4.63;;;3.28;;
15814;SDS011;8008;50.024;8.172;2022-08-30T18:06:37;3.83;;;3.20;;
15814;SDS011;8008;50.024;8.172;2022-08-30T18:09:07;7.75;;;2.90;;
15814;SDS011;8008;50.024;8.172;2022-08-30T18:11:36;3.17;;;2.80;;
15814;SDS011;8008;50.024;8.172;2022-08-30T18:14:06;3.00;;;2.78;;
15814;SDS011;8008;50.024;8.172;2022-08-30T18:16:38;3.70;;;2.92;;
15814;SDS011;8008;50.024;8.172;2022-08-30T18:19:20;4.75;;;3.40;;
15814;SDS011;8008;50.024;8.172;2022-08-30T18:21:48;10.23;;;3.60;;
15814;SDS011;8008;50.024;8.172;2022-08-30T18:24:17;5.88;;;3.80;;
15814;SDS011;8008;50.024;8.172;2022-08-30T18:26:46;6.28;;;3.88;;
15814;SDS011;8008;50.024;8.172;2022-08-30T18:29:14;5.63;;;3.78;;
15814;SDS011;8008;50.024;8.172;2022-08-30T18:31:54;6.30;;;4.60;;
15814;SDS011;8008;50.024;8.172;2022-08-30T18:34:22;6.53;;;4.20;;
15814;SDS011;8008;50.024;8.172;2022-08-30T18:36:50;5.32;;;4.30;;
15814;SDS011;8008;50.024;8.172;2022-08-30T18:39:19;4.97;;;4.35;;
15814;SDS011;8008;50.024;8.172;2022-08-30T18:41:48;6.55;;;4.35;;
15814;SDS011;8008;50.024;8.172;2022-08-30T18:44:20;5.32;;;4.05;;
15814;SDS011;8008;50.024;8.172;2022-08-30T18:46:59;5.55;;;4.22;;
15814;SDS011;8008;50.024;8.172;2022-08-30T18:49:30;5.97;;;4.30;;
15814;SDS011;8008;50.024;8.172;2022-08-30T18:51:59;4.70;;;3.80;;